Preview of NWS' New Version of Forecast
This preview is not operational and should not be used for support decisions.

Terminal Aerodrome Forecast (TAF)

Issued by National Weather Service (NWS)

                            
000
FTUS42 KKEY 280218 AAA
TAFEYW
TAF AMD
KEYW 280218Z 2802/2824 20011G17KT P6SM VCSH FEW012 SCT030 BKN100
     FM280600 16012G19KT P6SM VCTS SCT012CB BKN050 OVC100
     FM281200 18014G23KT P6SM VCSH SCT020 BKN100=